Hoffman Estates, IL (60192)

10:41 AM CDT on April 21, 2015 (GMT -0500)
Yardley | | Change Station
CLOSE
Current Station
Personal Weather Station
Location: Hoffman Estates, IL
Elevation: 810 ft
Nearby Weather Stations
Active Advisory: Wind Advisory

Elev 810 ft 42.04 °N, 88.11 °W | Updated 1 second ago

Overcast
Overcast
44.4 °F
Feels Like 39 °F
N
10.1
Wind Variable Wind from NW
Gusts 27.0 mph

Today
High -- | Low -- °F
--% Chance of Precip.
Yesterday
High -- | Low -- °F
Precip. -- in
6:02 AM 7:39 PM
Waxing Crescent, 11% visible
Pressure 29.62 in
Visibility 10.0 miles
Clouds Mostly Cloudy 4000 ft
Mostly Cloudy 5000 ft
Windchill 39 °F
Dew Point 30 °F
Humidity 56%
Rainfall 0.00 in
Snow Depth Not available.
UV 3 out of 12
Pollen 11.10 out of 12
Air Quality Not available.
Flu Activity Regional
METAR KORD 211451Z 28026G37KT 10SM BKN040 BKN050 06/M03 A2961 RMK AO2 PK WND 28037/1424 SLP030 T00611028 53007

More Conditions Fewer Conditions

Pressure 29.62 in
Visibility 10.0 miles
Clouds Mostly Cloudy 4000 ft
Mostly Cloudy 5000 ft
Windchill 39 °F
Dew Point 30 °F
Humidity 56%
Rainfall 0.00 in
Snow Depth Not available.
UV 3 out of 12
Pollen 11.10 out of 12
Air Quality Not available.
Flu Activity Regional
METAR KORD 211451Z 28026G37KT 10SM BKN040 BKN050 06/M03 A2961 RMK AO2 PK WND 28037/1424 SLP030 T00611028 53007

More Conditions Fewer Conditions

10-Day Weather Forecast

Almanac

Astronomy

Apr. 21, 2015 Rise Set
Actual Time
Civil Twilight
Nautical Twilight
Astronomical Twilight
Moon
Length of Visible Light
Length of Day
Tomorrow will be .
, % of the Moon is Illuminated

Today's Extremes

State Highs State Lows

Community

WunderPhotos

Upload Photos

1,815,428 photos uploaded!

WunderBlogs® & News

Nearby

Air Quality

  Air Quality AQ Index Pollutant
Not available.

Snow Depth

Station Depth Elevation

Earthquake Activity

City Distance Mag. Time & Date
Minimum magnitude displayed is 2.5.

Coastal Water Temperatures

Place Temperature

Stations

Nearby Weather Stations

Station Location Temp. Windchill Dew Point Humidity Wind Precip. Elev Updated Type
                   
Wind Advisory
Statement as of 10:07 AM CDT on April 21, 2015

... Wind Advisory now in effect until 7 PM CDT this evening...

* timing... through late this afternoon.

* Winds... 25 to 35 mph with gusts of 40 to 50 mph.

* Impacts... driving can become difficult... especially for north-
south oriented roads and high profile vehicles. Small tree
limbs are susceptible at wind gusts of this magnitude.

Precautionary/preparedness actions...

A Wind Advisory means that sustained winds of 30 mph or frequent
gusts of 45 mph or higher are expected. Winds this strong can
make driving difficult... especially for high profile vehicles.
Use extra caution.



Izzi